sensor_id;sensor_type;location;lat;lon;timestamp;P1;durP1;ratioP1;P2;durP2;ratioP2
28605;SDS011;46498;49.968;7.754;2023-05-10T00:02:51;1.37;;;0.20;;
28605;SDS011;46498;49.968;7.754;2023-05-10T00:07:53;0.20;;;0.17;;
28605;SDS011;46498;49.968;7.754;2023-05-10T00:12:53;2.40;;;0.35;;
28605;SDS011;46498;49.968;7.754;2023-05-10T00:17:54;0.75;;;0.40;;
28605;SDS011;46498;49.968;7.754;2023-05-10T00:22:55;0.85;;;0.62;;
28605;SDS011;46498;49.968;7.754;2023-05-10T00:27:56;0.60;;;0.50;;
28605;SDS011;46498;49.968;7.754;2023-05-10T00:32:57;3.00;;;0.55;;
28605;SDS011;46498;49.968;7.754;2023-05-10T00:37:58;1.08;;;0.35;;
28605;SDS011;46498;49.968;7.754;2023-05-10T00:42:59;3.17;;;0.70;;
28605;SDS011;46498;49.968;7.754;2023-05-10T00:48:02;0.80;;;0.50;;
28605;SDS011;46498;49.968;7.754;2023-05-10T00:53:04;1.17;;;0.50;;
28605;SDS011;46498;49.968;7.754;2023-05-10T00:58:05;2.45;;;0.65;;
28605;SDS011;46498;49.968;7.754;2023-05-10T01:03:06;2.47;;;0.75;;
28605;SDS011;46498;49.968;7.754;2023-05-10T01:08:07;3.47;;;0.93;;
28605;SDS011;46498;49.968;7.754;2023-05-10T01:13:09;3.53;;;1.00;;
28605;SDS011;46498;49.968;7.754;2023-05-10T01:18:10;4.40;;;1.02;;
28605;SDS011;46498;49.968;7.754;2023-05-10T01:23:23;3.17;;;0.93;;
28605;SDS011;46498;49.968;7.754;2023-05-10T01:29:24;2.95;;;0.98;;
28605;SDS011;46498;49.968;7.754;2023-05-10T01:35:00;4.72;;;1.12;;
28605;SDS011;46498;49.968;7.754;2023-05-10T01:40:23;2.95;;;1.17;;
28605;SDS011;46498;49.968;7.754;2023-05-10T01:47:12;1.60;;;1.42;;
28605;SDS011;46498;49.968;7.754;2023-05-10T01:52:18;3.67;;;1.80;;
28605;SDS011;46498;49.968;7.754;2023-05-10T01:57:24;3.05;;;2.20;;
28605;SDS011;46498;49.968;7.754;2023-05-10T02:02:28;4.47;;;2.33;;
28605;SDS011;46498;49.968;7.754;2023-05-10T02:07:34;6.70;;;2.28;;
28605;SDS011;46498;49.968;7.754;2023-05-10T02:12:37;5.70;;;2.08;;
28605;SDS011;46498;49.968;7.754;2023-05-10T02:17:42;8.35;;;2.30;;
28605;SDS011;46498;49.968;7.754;2023-05-10T02:22:44;4.72;;;2.28;;
28605;SDS011;46498;49.968;7.754;2023-05-10T02:27:47;4.85;;;2.47;;
28605;SDS011;46498;49.968;7.754;2023-05-10T02:32:49;5.45;;;2.53;;
28605;SDS011;46498;49.968;7.754;2023-05-10T02:37:52;4.32;;;2.70;;
28605;SDS011;46498;49.968;7.754;2023-05-10T02:42:54;5.35;;;2.87;;
28605;SDS011;46498;49.968;7.754;2023-05-10T02:47:56;5.45;;;2.72;;
28605;SDS011;46498;49.968;7.754;2023-05-10T02:53:04;4.20;;;2.70;;
28605;SDS011;46498;49.968;7.754;2023-05-10T02:58:10;8.23;;;2.87;;
28605;SDS011;46498;49.968;7.754;2023-05-10T03:03:11;4.62;;;2.58;;
28605;SDS011;46498;49.968;7.754;2023-05-10T03:08:13;5.70;;;3.10;;
28605;SDS011;46498;49.968;7.754;2023-05-10T03:13:29;3.70;;;2.33;;
28605;SDS011;46498;49.968;7.754;2023-05-10T03:18:40;6.10;;;2.83;;
28605;SDS011;46498;49.968;7.754;2023-05-10T03:23:50;10.25;;;3.58;;
28605;SDS011;46498;49.968;7.754;2023-05-10T03:28:54;8.75;;;3.20;;
28605;SDS011;46498;49.968;7.754;2023-05-10T03:33:56;7.15;;;3.30;;
28605;SDS011;46498;49.968;7.754;2023-05-10T03:38:59;18.67;;;4.82;;
28605;SDS011;46498;49.968;7.754;2023-05-10T03:44:01;9.48;;;4.12;;
28605;SDS011;46498;49.968;7.754;2023-05-10T03:49:02;7.70;;;3.45;;
28605;SDS011;46498;49.968;7.754;2023-05-10T03:54:03;7.70;;;3.97;;
28605;SDS011;46498;49.968;7.754;2023-05-10T03:59:04;13.57;;;4.20;;
28605;SDS011;46498;49.968;7.754;2023-05-10T04:04:07;9.35;;;4.03;;
28605;SDS011;46498;49.968;7.754;2023-05-10T04:09:08;9.38;;;4.10;;
28605;SDS011;46498;49.968;7.754;2023-05-10T04:14:10;9.73;;;3.60;;
28605;SDS011;46498;49.968;7.754;2023-05-10T04:19:10;10.38;;;3.62;;
28605;SDS011;46498;49.968;7.754;2023-05-10T04:24:11;10.63;;;3.72;;
28605;SDS011;46498;49.968;7.754;2023-05-10T04:29:13;8.25;;;4.28;;
28605;SDS011;46498;49.968;7.754;2023-05-10T04:34:14;7.72;;;3.62;;
28605;SDS011;46498;49.968;7.754;2023-05-10T04:39:15;9.65;;;4.10;;
28605;SDS011;46498;49.968;7.754;2023-05-10T04:44:16;11.10;;;4.37;;
28605;SDS011;46498;49.968;7.754;2023-05-10T04:49:16;13.00;;;4.55;;
28605;SDS011;46498;49.968;7.754;2023-05-10T04:59:19;12.18;;;4.03;;
28605;SDS011;46498;49.968;7.754;2023-05-10T05:04:19;10.73;;;4.78;;
28605;SDS011;46498;49.968;7.754;2023-05-10T05:09:20;11.52;;;3.85;;
28605;SDS011;46498;49.968;7.754;2023-05-10T05:14:21;9.90;;;4.50;;
28605;SDS011;46498;49.968;7.754;2023-05-10T05:19:22;8.90;;;4.35;;
28605;SDS011;46498;49.968;7.754;2023-05-10T05:24:23;14.85;;;5.25;;
28605;SDS011;46498;49.968;7.754;2023-05-10T05:29:24;10.40;;;5.03;;
28605;SDS011;46498;49.968;7.754;2023-05-10T05:34:25;8.60;;;4.22;;
28605;SDS011;46498;49.968;7.754;2023-05-10T05:39:26;8.68;;;3.17;;
28605;SDS011;46498;49.968;7.754;2023-05-10T05:44:27;4.35;;;3.00;;
28605;SDS011;46498;49.968;7.754;2023-05-10T05:49:29;8.80;;;2.50;;
28605;SDS011;46498;49.968;7.754;2023-05-10T05:54:30;5.78;;;3.03;;
28605;SDS011;46498;49.968;7.754;2023-05-10T05:59:32;7.62;;;3.28;;
28605;SDS011;46498;49.968;7.754;2023-05-10T06:04:32;11.07;;;4.35;;
28605;SDS011;46498;49.968;7.754;2023-05-10T06:09:33;9.10;;;3.83;;
28605;SDS011;46498;49.968;7.754;2023-05-10T06:14:34;8.50;;;3.80;;
28605;SDS011;46498;49.968;7.754;2023-05-10T06:19:35;7.70;;;3.28;;
28605;SDS011;46498;49.968;7.754;2023-05-10T06:24:37;13.55;;;2.97;;
28605;SDS011;46498;49.968;7.754;2023-05-10T06:29:38;6.53;;;2.75;;
28605;SDS011;46498;49.968;7.754;2023-05-10T06:34:39;10.80;;;3.25;;
28605;SDS011;46498;49.968;7.754;2023-05-10T06:39:40;11.95;;;2.75;;
28605;SDS011;46498;49.968;7.754;2023-05-10T06:44:41;8.38;;;2.60;;
28605;SDS011;46498;49.968;7.754;2023-05-10T06:49:42;5.87;;;2.40;;
28605;SDS011;46498;49.968;7.754;2023-05-10T06:54:43;10.85;;;2.75;;
28605;SDS011;46498;49.968;7.754;2023-05-10T06:59:44;8.93;;;2.87;;
28605;SDS011;46498;49.968;7.754;2023-05-10T07:04:46;7.47;;;2.40;;
28605;SDS011;46498;49.968;7.754;2023-05-10T07:09:47;7.53;;;2.30;;
28605;SDS011;46498;49.968;7.754;2023-05-10T07:14:50;8.70;;;2.90;;
28605;SDS011;46498;49.968;7.754;2023-05-10T07:19:51;7.53;;;2.08;;
28605;SDS011;46498;49.968;7.754;2023-05-10T07:24:52;6.87;;;1.98;;
28605;SDS011;46498;49.968;7.754;2023-05-10T07:29:53;2.47;;;1.30;;
28605;SDS011;46498;49.968;7.754;2023-05-10T07:34:55;5.30;;;1.23;;
28605;SDS011;46498;49.968;7.754;2023-05-10T07:39:55;2.00;;;1.30;;
28605;SDS011;46498;49.968;7.754;2023-05-10T07:44:57;2.65;;;1.50;;
28605;SDS011;46498;49.968;7.754;2023-05-10T07:49:58;5.70;;;1.33;;
28605;SDS011;46498;49.968;7.754;2023-05-10T07:54:59;2.30;;;1.10;;
28605;SDS011;46498;49.968;7.754;2023-05-10T08:00:00;2.80;;;1.45;;
28605;SDS011;46498;49.968;7.754;2023-05-10T08:05:01;2.70;;;1.65;;
28605;SDS011;46498;49.968;7.754;2023-05-10T08:10:02;4.45;;;1.87;;
28605;SDS011;46498;49.968;7.754;2023-05-10T08:15:04;1.70;;;0.95;;
28605;SDS011;46498;49.968;7.754;2023-05-10T08:20:05;2.25;;;0.82;;
28605;SDS011;46498;49.968;7.754;2023-05-10T08:30:09;0.93;;;0.60;;
28605;SDS011;46498;49.968;7.754;2023-05-10T08:35:10;1.77;;;0.70;;
28605;SDS011;46498;49.968;7.754;2023-05-10T08:40:11;3.90;;;0.68;;
28605;SDS011;46498;49.968;7.754;2023-05-10T08:45:12;3.65;;;1.20;;
28605;SDS011;46498;49.968;7.754;2023-05-10T08:50:16;2.20;;;0.60;;
28605;SDS011;46498;49.968;7.754;2023-05-10T08:55:20;0.62;;;0.50;;
28605;SDS011;46498;49.968;7.754;2023-05-10T09:00:23;6.55;;;0.62;;
28605;SDS011;46498;49.968;7.754;2023-05-10T09:05:25;2.03;;;0.50;;
28605;SDS011;46498;49.968;7.754;2023-05-10T09:10:27;1.70;;;0.80;;
28605;SDS011;46498;49.968;7.754;2023-05-10T09:15:28;1.80;;;0.50;;
28605;SDS011;46498;49.968;7.754;2023-05-10T09:20:29;0.62;;;0.30;;
28605;SDS011;46498;49.968;7.754;2023-05-10T09:25:30;1.25;;;0.60;;
28605;SDS011;46498;49.968;7.754;2023-05-10T09:30:34;7.68;;;0.68;;
28605;SDS011;46498;49.968;7.754;2023-05-10T09:35:35;2.92;;;0.98;;
28605;SDS011;46498;49.968;7.754;2023-05-10T09:40:36;0.93;;;0.62;;
28605;SDS011;46498;49.968;7.754;2023-05-10T09:45:37;4.20;;;0.90;;
28605;SDS011;46498;49.968;7.754;2023-05-10T09:50:39;5.27;;;0.70;;
28605;SDS011;46498;49.968;7.754;2023-05-10T09:55:44;2.62;;;0.80;;
28605;SDS011;46498;49.968;7.754;2023-05-10T10:00:47;3.45;;;1.00;;
28605;SDS011;46498;49.968;7.754;2023-05-10T10:05:48;1.77;;;0.62;;
28605;SDS011;46498;49.968;7.754;2023-05-10T10:10:49;3.08;;;0.70;;
28605;SDS011;46498;49.968;7.754;2023-05-10T10:15:53;3.65;;;0.70;;
28605;SDS011;46498;49.968;7.754;2023-05-10T10:20:55;5.15;;;0.73;;
28605;SDS011;46498;49.968;7.754;2023-05-10T10:25:57;2.05;;;0.68;;
28605;SDS011;46498;49.968;7.754;2023-05-10T10:31:00;2.60;;;1.17;;
28605;SDS011;46498;49.968;7.754;2023-05-10T10:36:16;4.43;;;1.45;;
28605;SDS011;46498;49.968;7.754;2023-05-10T10:41:36;2.55;;;0.50;;
28605;SDS011;46498;49.968;7.754;2023-05-10T10:46:58;2.75;;;0.88;;
28605;SDS011;46498;49.968;7.754;2023-05-10T11:09:21;1.95;;;0.85;;
28605;SDS011;46498;49.968;7.754;2023-05-10T11:14:25;1.85;;;1.08;;
28605;SDS011;46498;49.968;7.754;2023-05-10T11:19:29;4.37;;;0.50;;
28605;SDS011;46498;49.968;7.754;2023-05-10T11:24:29;0.70;;;0.30;;
28605;SDS011;46498;49.968;7.754;2023-05-10T11:29:30;2.08;;;0.40;;
28605;SDS011;46498;49.968;7.754;2023-05-10T11:34:31;1.60;;;0.30;;
28605;SDS011;46498;49.968;7.754;2023-05-10T11:39:35;0.95;;;0.40;;
28605;SDS011;46498;49.968;7.754;2023-05-10T11:44:36;1.90;;;0.37;;
28605;SDS011;46498;49.968;7.754;2023-05-10T11:49:37;1.12;;;0.30;;
28605;SDS011;46498;49.968;7.754;2023-05-10T11:54:44;4.18;;;0.57;;
28605;SDS011;46498;49.968;7.754;2023-05-10T11:59:46;4.12;;;0.95;;
28605;SDS011;46498;49.968;7.754;2023-05-10T12:04:47;2.33;;;0.57;;
28605;SDS011;46498;49.968;7.754;2023-05-10T12:10:11;1.02;;;0.62;;
28605;SDS011;46498;49.968;7.754;2023-05-10T12:15:21;0.70;;;0.60;;
28605;SDS011;46498;49.968;7.754;2023-05-10T12:25:29;3.00;;;0.95;;
28605;SDS011;46498;49.968;7.754;2023-05-10T12:30:32;4.65;;;0.90;;
28605;SDS011;46498;49.968;7.754;2023-05-10T12:35:43;1.85;;;0.82;;
28605;SDS011;46498;49.968;7.754;2023-05-10T12:40:48;3.25;;;0.93;;
28605;SDS011;46498;49.968;7.754;2023-05-10T12:45:48;2.45;;;0.93;;
28605;SDS011;46498;49.968;7.754;2023-05-10T12:50:49;6.12;;;1.30;;
28605;SDS011;46498;49.968;7.754;2023-05-10T12:55:50;2.85;;;1.10;;
28605;SDS011;46498;49.968;7.754;2023-05-10T13:00:51;6.53;;;1.00;;
28605;SDS011;46498;49.968;7.754;2023-05-10T13:05:53;3.58;;;1.00;;
28605;SDS011;46498;49.968;7.754;2023-05-10T13:10:53;7.25;;;2.70;;
28605;SDS011;46498;49.968;7.754;2023-05-10T13:15:54;2.70;;;1.30;;
28605;SDS011;46498;49.968;7.754;2023-05-10T13:20:55;2.10;;;0.80;;
28605;SDS011;46498;49.968;7.754;2023-05-10T13:25:56;5.25;;;0.80;;
28605;SDS011;46498;49.968;7.754;2023-05-10T13:30:57;1.77;;;0.73;;
28605;SDS011;46498;49.968;7.754;2023-05-10T13:35:58;2.92;;;0.98;;
28605;SDS011;46498;49.968;7.754;2023-05-10T13:40:59;2.28;;;0.90;;
28605;SDS011;46498;49.968;7.754;2023-05-10T13:46:00;3.47;;;1.20;;
28605;SDS011;46498;49.968;7.754;2023-05-10T13:51:01;2.75;;;0.90;;
28605;SDS011;46498;49.968;7.754;2023-05-10T13:56:02;2.00;;;0.90;;
28605;SDS011;46498;49.968;7.754;2023-05-10T14:01:03;2.72;;;0.98;;
28605;SDS011;46498;49.968;7.754;2023-05-10T14:06:05;14.93;;;8.02;;
28605;SDS011;46498;49.968;7.754;2023-05-10T14:11:07;5.72;;;1.33;;
28605;SDS011;46498;49.968;7.754;2023-05-10T14:16:08;4.45;;;0.98;;
28605;SDS011;46498;49.968;7.754;2023-05-10T14:21:09;3.47;;;0.90;;
28605;SDS011;46498;49.968;7.754;2023-05-10T14:26:10;3.70;;;0.85;;
28605;SDS011;46498;49.968;7.754;2023-05-10T14:31:11;4.97;;;1.10;;
28605;SDS011;46498;49.968;7.754;2023-05-10T14:36:12;5.45;;;0.90;;
28605;SDS011;46498;49.968;7.754;2023-05-10T14:41:15;9.10;;;1.50;;
28605;SDS011;46498;49.968;7.754;2023-05-10T14:46:17;4.15;;;1.33;;
28605;SDS011;46498;49.968;7.754;2023-05-10T14:51:18;6.22;;;1.20;;
28605;SDS011;46498;49.968;7.754;2023-05-10T14:56:22;3.85;;;1.25;;
28605;SDS011;46498;49.968;7.754;2023-05-10T15:01:23;2.42;;;0.80;;
28605;SDS011;46498;49.968;7.754;2023-05-10T15:06:30;9.65;;;1.73;;
28605;SDS011;46498;49.968;7.754;2023-05-10T15:11:32;4.15;;;1.08;;
28605;SDS011;46498;49.968;7.754;2023-05-10T15:16:33;7.32;;;1.23;;
28605;SDS011;46498;49.968;7.754;2023-05-10T15:21:36;3.25;;;1.15;;
28605;SDS011;46498;49.968;7.754;2023-05-10T15:26:39;5.40;;;1.12;;
28605;SDS011;46498;49.968;7.754;2023-05-10T15:31:40;5.22;;;0.98;;
28605;SDS011;46498;49.968;7.754;2023-05-10T15:36:41;7.00;;;1.42;;
28605;SDS011;46498;49.968;7.754;2023-05-10T15:41:42;1.98;;;1.02;;
28605;SDS011;46498;49.968;7.754;2023-05-10T15:46:44;4.60;;;0.95;;
28605;SDS011;46498;49.968;7.754;2023-05-10T15:51:45;5.30;;;0.70;;
28605;SDS011;46498;49.968;7.754;2023-05-10T15:56:46;7.03;;;1.00;;
28605;SDS011;46498;49.968;7.754;2023-05-10T16:01:46;1.87;;;0.70;;
28605;SDS011;46498;49.968;7.754;2023-05-10T16:06:48;5.70;;;1.30;;
28605;SDS011;46498;49.968;7.754;2023-05-10T16:11:49;3.08;;;1.35;;
28605;SDS011;46498;49.968;7.754;2023-05-10T16:16:49;8.55;;;1.15;;
28605;SDS011;46498;49.968;7.754;2023-05-10T16:21:50;3.95;;;1.98;;
28605;SDS011;46498;49.968;7.754;2023-05-10T16:26:51;2.40;;;1.15;;
28605;SDS011;46498;49.968;7.754;2023-05-10T16:31:52;5.18;;;1.52;;
28605;SDS011;46498;49.968;7.754;2023-05-10T16:36:54;3.92;;;1.23;;
28605;SDS011;46498;49.968;7.754;2023-05-10T16:41:55;6.82;;;1.50;;
28605;SDS011;46498;49.968;7.754;2023-05-10T16:46:56;4.18;;;0.77;;
28605;SDS011;46498;49.968;7.754;2023-05-10T16:51:56;1.52;;;0.60;;
28605;SDS011;46498;49.968;7.754;2023-05-10T16:56:57;7.30;;;1.73;;
28605;SDS011;46498;49.968;7.754;2023-05-10T17:01:58;4.10;;;0.90;;
28605;SDS011;46498;49.968;7.754;2023-05-10T17:06:59;3.60;;;0.73;;
28605;SDS011;46498;49.968;7.754;2023-05-10T17:12:00;2.45;;;0.88;;
28605;SDS011;46498;49.968;7.754;2023-05-10T17:17:02;2.15;;;0.77;;
28605;SDS011;46498;49.968;7.754;2023-05-10T17:22:04;5.15;;;1.98;;
28605;SDS011;46498;49.968;7.754;2023-05-10T17:27:04;2.45;;;1.33;;
28605;SDS011;46498;49.968;7.754;2023-05-10T17:32:06;4.07;;;1.10;;
28605;SDS011;46498;49.968;7.754;2023-05-10T17:37:08;3.12;;;0.90;;
28605;SDS011;46498;49.968;7.754;2023-05-10T17:42:09;3.35;;;0.80;;
28605;SDS011;46498;49.968;7.754;2023-05-10T17:47:12;1.80;;;0.60;;
28605;SDS011;46498;49.968;7.754;2023-05-10T17:52:12;1.67;;;0.43;;
28605;SDS011;46498;49.968;7.754;2023-05-10T17:57:13;3.28;;;0.65;;
28605;SDS011;46498;49.968;7.754;2023-05-10T18:02:14;4.65;;;0.70;;
28605;SDS011;46498;49.968;7.754;2023-05-10T18:07:15;2.60;;;0.75;;
28605;SDS011;46498;49.968;7.754;2023-05-10T18:12:16;1.95;;;0.73;;
28605;SDS011;46498;49.968;7.754;2023-05-10T18:17:17;1.65;;;1.05;;
28605;SDS011;46498;49.968;7.754;2023-05-10T18:22:18;2.67;;;1.05;;
28605;SDS011;46498;49.968;7.754;2023-05-10T18:27:21;2.62;;;0.73;;
28605;SDS011;46498;49.968;7.754;2023-05-10T18:32:22;5.57;;;0.90;;
28605;SDS011;46498;49.968;7.754;2023-05-10T18:37:24;6.35;;;1.20;;
28605;SDS011;46498;49.968;7.754;2023-05-10T18:42:24;2.22;;;0.90;;
28605;SDS011;46498;49.968;7.754;2023-05-10T18:47:26;4.82;;;1.87;;
28605;SDS011;46498;49.968;7.754;2023-05-10T18:52:27;2.83;;;1.65;;
28605;SDS011;46498;49.968;7.754;2023-05-10T18:57:28;3.05;;;1.10;;
28605;SDS011;46498;49.968;7.754;2023-05-10T19:02:29;4.25;;;1.58;;
28605;SDS011;46498;49.968;7.754;2023-05-10T19:07:30;3.42;;;1.42;;
28605;SDS011;46498;49.968;7.754;2023-05-10T19:12:31;4.05;;;0.93;;
28605;SDS011;46498;49.968;7.754;2023-05-10T19:17:32;4.60;;;0.85;;
28605;SDS011;46498;49.968;7.754;2023-05-10T19:22:36;3.60;;;0.80;;
28605;SDS011;46498;49.968;7.754;2023-05-10T19:27:55;3.20;;;0.60;;
28605;SDS011;46498;49.968;7.754;2023-05-10T19:32:59;1.30;;;0.70;;
28605;SDS011;46498;49.968;7.754;2023-05-10T19:38:05;3.30;;;0.68;;
28605;SDS011;46498;49.968;7.754;2023-05-10T19:43:06;2.30;;;0.82;;
28605;SDS011;46498;49.968;7.754;2023-05-10T19:48:07;1.83;;;1.02;;
28605;SDS011;46498;49.968;7.754;2023-05-10T19:53:08;1.48;;;0.80;;
28605;SDS011;46498;49.968;7.754;2023-05-10T19:58:09;1.35;;;0.57;;
28605;SDS011;46498;49.968;7.754;2023-05-10T20:03:10;1.25;;;0.60;;
28605;SDS011;46498;49.968;7.754;2023-05-10T20:08:11;1.98;;;0.60;;
28605;SDS011;46498;49.968;7.754;2023-05-10T20:13:12;2.45;;;0.80;;
28605;SDS011;46498;49.968;7.754;2023-05-10T20:18:13;1.65;;;0.98;;
28605;SDS011;46498;49.968;7.754;2023-05-10T20:23:14;2.08;;;0.70;;
28605;SDS011;46498;49.968;7.754;2023-05-10T20:28:19;2.92;;;0.77;;
28605;SDS011;46498;49.968;7.754;2023-05-10T20:33:21;7.68;;;0.85;;
28605;SDS011;46498;49.968;7.754;2023-05-10T20:38:22;1.50;;;0.80;;
28605;SDS011;46498;49.968;7.754;2023-05-10T20:43:23;5.30;;;0.90;;
28605;SDS011;46498;49.968;7.754;2023-05-10T20:48:24;4.45;;;0.80;;
28605;SDS011;46498;49.968;7.754;2023-05-10T20:53:25;3.72;;;0.70;;
28605;SDS011;46498;49.968;7.754;2023-05-10T20:58:26;2.95;;;0.65;;
28605;SDS011;46498;49.968;7.754;2023-05-10T21:03:27;2.40;;;0.77;;
28605;SDS011;46498;49.968;7.754;2023-05-10T21:08:28;3.67;;;0.80;;
28605;SDS011;46498;49.968;7.754;2023-05-10T21:13:28;1.40;;;0.80;;
28605;SDS011;46498;49.968;7.754;2023-05-10T21:18:29;2.40;;;0.68;;
28605;SDS011;46498;49.968;7.754;2023-05-10T21:23:30;8.25;;;1.33;;
28605;SDS011;46498;49.968;7.754;2023-05-10T21:28:34;3.42;;;0.77;;
28605;SDS011;46498;49.968;7.754;2023-05-10T21:33:35;5.57;;;0.55;;
28605;SDS011;46498;49.968;7.754;2023-05-10T21:38:36;3.05;;;0.90;;
28605;SDS011;46498;49.968;7.754;2023-05-10T21:43:37;3.80;;;0.88;;
28605;SDS011;46498;49.968;7.754;2023-05-10T21:48:38;2.00;;;0.80;;
28605;SDS011;46498;49.968;7.754;2023-05-10T21:53:39;3.72;;;1.20;;
28605;SDS011;46498;49.968;7.754;2023-05-10T21:58:40;1.80;;;0.90;;
28605;SDS011;46498;49.968;7.754;2023-05-10T22:03:41;2.95;;;0.90;;
28605;SDS011;46498;49.968;7.754;2023-05-10T22:08:42;2.37;;;0.90;;
28605;SDS011;46498;49.968;7.754;2023-05-10T22:13:43;1.85;;;0.80;;
28605;SDS011;46498;49.968;7.754;2023-05-10T22:18:44;2.22;;;0.75;;
28605;SDS011;46498;49.968;7.754;2023-05-10T22:23:45;1.77;;;0.80;;
28605;SDS011;46498;49.968;7.754;2023-05-10T22:28:45;1.98;;;0.62;;
28605;SDS011;46498;49.968;7.754;2023-05-10T22:33:46;4.45;;;0.95;;
28605;SDS011;46498;49.968;7.754;2023-05-10T22:38:48;3.25;;;0.90;;
28605;SDS011;46498;49.968;7.754;2023-05-10T22:43:48;1.50;;;0.73;;
28605;SDS011;46498;49.968;7.754;2023-05-10T22:48:49;4.70;;;0.90;;
28605;SDS011;46498;49.968;7.754;2023-05-10T22:53:50;2.20;;;0.80;;
28605;SDS011;46498;49.968;7.754;2023-05-10T22:58:51;4.75;;;1.02;;
28605;SDS011;46498;49.968;7.754;2023-05-10T23:03:52;2.90;;;0.80;;
28605;SDS011;46498;49.968;7.754;2023-05-10T23:08:53;2.78;;;0.85;;
28605;SDS011;46498;49.968;7.754;2023-05-10T23:13:54;1.20;;;0.77;;
28605;SDS011;46498;49.968;7.754;2023-05-10T23:18:55;2.10;;;0.80;;
28605;SDS011;46498;49.968;7.754;2023-05-10T23:23:56;4.82;;;1.15;;
28605;SDS011;46498;49.968;7.754;2023-05-10T23:28:57;3.47;;;0.88;;
28605;SDS011;46498;49.968;7.754;2023-05-10T23:33:59;1.87;;;0.77;;
28605;SDS011;46498;49.968;7.754;2023-05-10T23:39:00;4.47;;;1.05;;
28605;SDS011;46498;49.968;7.754;2023-05-10T23:44:01;2.35;;;0.80;;
28605;SDS011;46498;49.968;7.754;2023-05-10T23:49:02;3.67;;;1.00;;
28605;SDS011;46498;49.968;7.754;2023-05-10T23:54:03;2.03;;;1.20;;
28605;SDS011;46498;49.968;7.754;2023-05-10T23:59:04;5.68;;;0.90;;
